createdAt,value
2019-04-10T00:00:51.286Z,90.40
2019-04-10T00:04:00.789Z,90.70
2019-04-10T00:07:20.837Z,90.60
2019-04-10T00:10:29.959Z,90.70
2019-04-10T00:13:38.621Z,90.70
2019-04-10T00:16:47.133Z,90.80
2019-04-10T00:19:56.029Z,90.60
2019-04-10T00:23:04.679Z,90.60
2019-04-10T00:26:13.255Z,90.70
2019-04-10T00:29:22.408Z,90.70
2019-04-10T00:32:32.079Z,90.90
2019-04-10T00:35:51.960Z,90.90
2019-04-10T00:39:00.670Z,91.20
2019-04-10T00:42:10.698Z,90.90
2019-04-10T00:45:29.700Z,91.00
2019-04-10T00:48:38.260Z,91.20
2019-04-10T00:51:47.819Z,91.20
2019-04-10T00:55:07.766Z,91.10
2019-04-10T00:58:16.372Z,91.00
2019-04-10T01:01:25.001Z,91.10
2019-04-10T01:04:34.165Z,91.20
2019-04-10T01:07:44.641Z,91.00
2019-04-10T01:10:53.269Z,90.80
2019-04-10T01:14:01.879Z,91.00
2019-04-10T01:17:11.696Z,91.10
2019-04-10T01:20:20.350Z,91.10
2019-04-10T01:23:29.038Z,91.10
2019-04-10T01:26:37.602Z,90.90
2019-04-10T01:29:46.166Z,91.10
2019-04-10T01:32:54.806Z,91.20
2019-04-10T01:36:03.359Z,91.30
2019-04-10T01:39:15.905Z,91.30
2019-04-10T01:42:24.880Z,91.40
2019-04-10T01:45:33.645Z,91.50
2019-04-10T01:48:42.311Z,91.50
2019-04-10T01:51:51.817Z,91.50
2019-04-10T01:55:20.327Z,91.60
2019-04-10T01:58:23.219Z,91.70
2019-04-10T02:02:07.126Z,91.80
2019-04-10T02:05:16.530Z,92.00
2019-04-10T02:08:25.772Z,91.80
2019-04-10T02:11:34.413Z,91.80
2019-04-10T02:14:43.009Z,91.90
2019-04-10T02:17:51.559Z,92.10
2019-04-10T02:21:01.085Z,92.10
2019-04-10T02:24:09.845Z,91.80
2019-04-10T02:27:18.493Z,91.90
2019-04-10T02:30:27.080Z,91.90
2019-04-10T02:33:35.811Z,92.10
2019-04-10T02:36:44.663Z,92.30
2019-04-10T02:39:57.948Z,92.30
2019-04-10T02:43:05.444Z,92.10
2019-04-10T02:46:13.820Z,92.20
2019-04-10T02:49:22.542Z,92.10
2019-04-10T02:52:32.805Z,92.10
2019-04-10T02:55:43.132Z,91.90
2019-04-10T02:58:52.030Z,92.20
2019-04-10T03:02:11.669Z,92.10
2019-04-10T03:05:22.967Z,92.00
2019-04-10T03:08:46.806Z,92.10
2019-04-10T03:11:41.945Z,92.20
2019-04-10T03:15:03.264Z,92.30
2019-04-10T03:18:12.719Z,92.40
2019-04-10T03:21:20.779Z,92.20
2019-04-10T03:24:29.558Z,92.30
2019-04-10T03:27:38.688Z,92.30
2019-04-10T03:30:59.970Z,92.20
2019-04-10T03:34:22.667Z,92.40
2019-04-10T03:37:31.955Z,92.50
2019-04-10T03:40:41.534Z,92.50
2019-04-10T03:43:50.449Z,92.50
2019-04-10T03:46:59.008Z,92.70
2019-04-10T03:50:06.675Z,92.60
2019-04-10T03:53:26.424Z,92.70
2019-04-10T03:56:35.997Z,92.70
2019-04-10T03:59:45.455Z,92.90
2019-04-10T04:03:04.428Z,92.80
2019-04-10T04:06:13.025Z,92.90
2019-04-10T04:09:21.748Z,92.80
2019-04-10T04:12:31.352Z,92.80
2019-04-10T04:15:40.062Z,92.90
2019-04-10T04:18:49.185Z,92.90
2019-04-10T04:21:58.458Z,92.90
2019-04-10T04:25:07.258Z,92.90
2019-04-10T04:28:16.859Z,93.00
2019-04-10T04:31:25.621Z,93.10
2019-04-10T04:34:45.435Z,93.20
2019-04-10T04:37:54.891Z,93.20
2019-04-10T04:41:04.842Z,93.30
2019-04-10T04:44:14.517Z,93.20
2019-04-10T04:47:33.481Z,93.10
2019-04-10T04:50:42.125Z,93.20
2019-04-10T04:53:50.865Z,93.40
2019-04-10T04:57:00.154Z,93.40
2019-04-10T05:00:19.440Z,93.40
2019-04-10T05:03:28.986Z,93.50
2019-04-10T05:06:37.668Z,93.40
2019-04-10T05:09:46.153Z,93.40
2019-04-10T05:13:06.122Z,93.50
2019-04-10T05:16:14.754Z,93.30
2019-04-10T05:19:23.474Z,93.40
2019-04-10T05:22:32.239Z,93.50
2019-04-10T05:25:41.493Z,93.30
2019-04-10T05:28:50.822Z,93.20
2019-04-10T05:32:00.622Z,93.00
2019-04-10T05:35:10.120Z,93.00
2019-04-10T05:38:29.290Z,93.00
2019-04-10T05:41:38.025Z,92.90
2019-04-10T05:44:46.530Z,92.80
2019-04-10T05:47:56.964Z,92.70
2019-04-10T05:51:07.927Z,92.70
2019-04-10T05:54:17.119Z,92.50
2019-04-10T05:57:26.752Z,92.20
2019-04-10T06:00:35.433Z,92.00
2019-04-10T06:03:45.619Z,91.80
2019-04-10T06:06:54.835Z,91.70
2019-04-10T06:10:05.662Z,91.30
2019-04-10T06:13:14.874Z,91.10
2019-04-10T06:16:24.013Z,91.10
2019-04-10T06:19:32.563Z,91.00
2019-04-10T06:22:47.481Z,90.80
2019-04-10T06:25:56.520Z,90.70
2019-04-10T06:29:05.139Z,90.60
2019-04-10T06:32:13.750Z,90.60
2019-04-10T06:35:32.582Z,90.40
2019-04-10T06:38:41.277Z,90.50
2019-04-10T06:41:50.833Z,90.50
2019-04-10T06:45:00.645Z,89.70
2019-04-10T06:48:32.160Z,88.80
2019-04-10T06:51:41.041Z,87.30
2019-04-10T06:55:15.368Z,87.00
2019-04-10T06:58:23.682Z,85.20
2019-04-10T07:01:43.474Z,84.60
2019-04-10T07:04:59.918Z,83.90
2019-04-10T07:08:19.863Z,83.10
2019-04-10T07:11:31.375Z,82.20
2019-04-10T07:14:44.025Z,80.40
2019-04-10T07:18:00.966Z,79.50
2019-04-10T07:21:10.637Z,79.00
2019-04-10T07:24:18.870Z,75.60
2019-04-10T07:27:27.797Z,74.20
2019-04-10T07:30:38.008Z,74.20
2019-04-10T07:33:57.149Z,70.90
2019-04-10T07:37:05.928Z,72.00
2019-04-10T07:40:14.752Z,73.00
2019-04-10T07:43:27.187Z,70.00
2019-04-10T07:46:44.432Z,68.20
2019-04-10T07:49:53.067Z,66.60
2019-04-10T07:53:01.977Z,62.40
2019-04-10T07:56:14.935Z,59.10
2019-04-10T07:59:20.976Z,57.90
2019-04-10T08:02:29.716Z,54.60
2019-04-10T08:05:38.542Z,54.70
2019-04-10T08:08:47.076Z,52.80
2019-04-10T08:11:56.726Z,52.10
2019-04-10T08:15:16.781Z,50.90
2019-04-10T08:18:25.653Z,50.90
2019-04-10T08:21:34.337Z,51.00
2019-04-10T08:24:45.744Z,50.00
2019-04-10T08:27:54.277Z,51.30
2019-04-10T08:31:03.020Z,51.10
2019-04-10T08:34:11.715Z,49.40
2019-04-10T08:37:18.884Z,49.50
2019-04-10T08:40:27.882Z,49.40
2019-04-10T08:43:48.115Z,46.10
2019-04-10T08:46:58.135Z,45.80
2019-04-10T08:50:07.997Z,45.20
2019-04-10T08:53:16.527Z,43.90
2019-04-10T08:56:25.248Z,42.80
2019-04-10T08:59:32.413Z,44.30
2019-04-10T09:02:42.242Z,45.70
2019-04-10T09:05:51.119Z,45.40
2019-04-10T09:08:59.882Z,46.10
2019-04-10T09:12:09.383Z,46.90
2019-04-10T09:15:18.212Z,47.50
2019-04-10T09:18:27.390Z,46.40
2019-04-10T09:21:47.824Z,47.00
2019-04-10T09:24:56.605Z,46.30
2019-04-10T09:28:06.355Z,46.80
2019-04-10T09:31:15.678Z,46.60
2019-04-10T09:34:25.584Z,47.00
2019-04-10T09:37:34.535Z,46.10
2019-04-10T09:40:44.603Z,47.40
2019-04-10T09:43:56.168Z,48.30
2019-04-10T09:47:05.553Z,49.30
2019-04-10T09:50:15.262Z,48.60
2019-04-10T09:53:24.560Z,48.30
2019-04-10T09:56:44.196Z,48.20
2019-04-10T09:59:52.984Z,45.90
2019-04-10T10:03:01.638Z,43.10
2019-04-10T10:06:27.096Z,41.70
2019-04-10T10:09:31.032Z,41.20
2019-04-10T10:12:40.741Z,42.20
2019-04-10T10:15:49.531Z,40.50
2019-04-10T10:18:58.188Z,40.00
2019-04-10T10:22:07.605Z,38.20
2019-04-10T10:25:17.384Z,37.40
2019-04-10T10:28:27.036Z,36.50
2019-04-10T10:31:36.121Z,36.30
2019-04-10T10:34:55.283Z,36.60
2019-04-10T10:38:05.299Z,37.90
2019-04-10T10:41:15.149Z,38.20
2019-04-10T10:44:23.861Z,38.50
2019-04-10T10:47:32.731Z,38.00
2019-04-10T10:50:41.612Z,38.50
2019-04-10T10:53:50.494Z,37.50
2019-04-10T10:56:59.237Z,39.20
2019-04-10T11:00:11.424Z,40.20
2019-04-10T11:03:19.010Z,38.20
2019-04-10T11:06:29.107Z,37.50
2019-04-10T11:09:38.015Z,35.20
2019-04-10T11:12:46.706Z,34.40
2019-04-10T11:15:56.248Z,33.00
2019-04-10T11:19:15.456Z,32.00
2019-04-10T11:22:25.720Z,31.50
2019-04-10T11:25:35.841Z,30.30
2019-04-10T11:28:45.611Z,29.40
2019-04-10T11:31:55.499Z,29.50
2019-04-10T11:35:04.644Z,29.40
2019-04-10T11:38:25.677Z,28.90
2019-04-10T11:41:34.019Z,29.00
2019-04-10T11:44:46.555Z,29.00
2019-04-10T11:47:53.021Z,28.90
2019-04-10T11:51:03.198Z,29.30
2019-04-10T11:54:14.578Z,29.30
2019-04-10T11:57:22.898Z,29.50
2019-04-10T12:00:47.310Z,29.40
2019-04-10T12:03:54.322Z,29.40
2019-04-10T12:07:02.021Z,29.40
2019-04-10T12:13:32.451Z,30.00
2019-04-10T12:16:41.217Z,29.70
2019-04-10T12:19:49.900Z,29.50
2019-04-10T12:22:58.719Z,29.90
2019-04-10T12:26:07.743Z,30.00
2019-04-10T12:29:18.351Z,28.90
2019-04-10T12:32:27.063Z,27.80
2019-04-10T12:35:36.169Z,27.80
2019-04-10T12:38:46.530Z,28.70
2019-04-10T12:41:55.509Z,28.50
2019-04-10T12:45:06.174Z,27.30
2019-04-10T12:48:14.929Z,28.20
2019-04-10T12:51:23.635Z,28.70
2019-04-10T12:54:33.300Z,28.60
2019-04-10T12:57:43.411Z,29.40
2019-04-10T13:00:52.950Z,30.50
2019-04-10T13:04:01.710Z,30.70
2019-04-10T13:07:11.451Z,30.30
2019-04-10T13:10:20.464Z,30.00
2019-04-10T13:13:30.320Z,29.60
2019-04-10T13:16:38.984Z,28.90
2019-04-10T13:19:47.673Z,28.30
2019-04-10T13:22:56.381Z,28.40
2019-04-10T13:26:06.402Z,29.30
2019-04-10T13:29:16.200Z,29.60
2019-04-10T13:32:25.560Z,31.60
2019-04-10T13:35:34.413Z,33.90
2019-04-10T13:38:42.987Z,35.00
2019-04-10T13:41:52.552Z,34.50
2019-04-10T13:45:01.342Z,35.40
2019-04-10T13:48:10.272Z,36.50
2019-04-10T13:51:19.297Z,37.40
2019-04-10T13:54:38.909Z,37.70
2019-04-10T13:57:47.729Z,37.90
2019-04-10T14:00:56.636Z,37.20
2019-04-10T14:04:05.290Z,37.80
2019-04-10T14:07:25.363Z,38.00
2019-04-10T14:10:35.305Z,39.20
2019-04-10T14:13:44.272Z,39.60
2019-04-10T14:17:07.520Z,38.20
2019-04-10T14:20:20.320Z,37.60
2019-04-10T14:23:31.415Z,37.80
2019-04-10T14:26:52.768Z,38.90
2019-04-10T14:30:00.920Z,38.80
2019-04-10T14:33:10.591Z,39.00
2019-04-10T14:36:20.830Z,39.20
2019-04-10T14:39:29.650Z,39.20
2019-04-10T14:42:38.495Z,39.50
2019-04-10T14:45:48.043Z,39.10
2019-04-10T14:48:56.944Z,39.60
2019-04-10T14:52:05.707Z,38.50
2019-04-10T14:55:14.550Z,38.60
2019-04-10T14:58:28.161Z,38.70
2019-04-10T15:01:35.910Z,38.20
2019-04-10T15:04:45.772Z,38.00
2019-04-10T15:07:55.352Z,37.90
2019-04-10T15:11:04.522Z,37.80
2019-04-10T15:14:15.212Z,38.20
2019-04-10T15:17:25.158Z,38.20
2019-04-10T15:20:34.006Z,38.20
2019-04-10T15:23:42.735Z,39.30
2019-04-10T15:26:51.567Z,38.60
2019-04-10T15:30:00.282Z,38.60
2019-04-10T15:33:10.029Z,38.30
2019-04-10T15:36:29.300Z,38.40
2019-04-10T15:39:39.932Z,38.20
2019-04-10T15:42:48.205Z,38.40
2019-04-10T15:45:56.977Z,37.90
2019-04-10T15:49:05.598Z,38.60
2019-04-10T15:52:14.519Z,38.80
2019-04-10T15:55:24.177Z,38.70
2019-04-10T15:58:35.330Z,38.70
2019-04-10T16:01:43.528Z,38.40
2019-04-10T16:04:53.363Z,38.00
2019-04-10T16:08:03.446Z,38.00
2019-04-10T16:11:50.159Z,38.60
2019-04-10T16:14:59.200Z,38.50
2019-04-10T16:18:13.556Z,39.30
2019-04-10T16:21:34.327Z,39.10
2019-04-10T16:24:42.993Z,38.90
2019-04-10T16:27:53.778Z,38.50
2019-04-10T16:31:13.151Z,37.50
2019-04-10T16:34:32.477Z,38.00
2019-04-10T16:37:51.628Z,38.00
2019-04-10T16:41:00.937Z,37.70
2019-04-10T16:44:11.065Z,37.30
2019-04-10T16:47:32.307Z,37.30
2019-04-10T16:50:41.065Z,37.50
2019-04-10T16:53:49.858Z,38.20
2019-04-10T16:56:58.516Z,38.80
2019-04-10T17:00:07.812Z,37.70
2019-04-10T17:03:17.623Z,38.90
2019-04-10T17:06:26.231Z,39.90
2019-04-10T17:09:36.517Z,40.30
2019-04-10T17:12:46.329Z,41.20
2019-04-10T17:15:55.625Z,41.70
2019-04-10T17:19:05.562Z,42.30
2019-04-10T17:22:29.216Z,43.00
2019-04-10T17:25:27.003Z,43.20
2019-04-10T17:28:38.625Z,43.70
2019-04-10T17:31:57.691Z,43.80
2019-04-10T17:35:09.513Z,43.40
2019-04-10T17:38:18.471Z,43.60
2019-04-10T17:41:27.940Z,44.30
2019-04-10T17:44:38.046Z,45.00
2019-04-10T17:47:57.969Z,46.00
2019-04-10T17:51:07.948Z,46.50
2019-04-10T17:54:28.182Z,47.20
2019-04-10T17:57:41.873Z,47.50
2019-04-10T18:00:52.040Z,48.00
2019-04-10T18:04:03.435Z,48.10
2019-04-10T18:07:12.048Z,48.70
2019-04-10T18:10:21.183Z,48.60
2019-04-10T18:13:31.858Z,49.20
2019-04-10T18:16:38.044Z,49.60
2019-04-10T18:19:46.823Z,50.60
2019-04-10T18:22:55.455Z,51.20
2019-04-10T18:26:02.653Z,51.70
2019-04-10T18:29:11.385Z,52.30
2019-04-10T18:32:20.004Z,53.10
2019-04-10T18:35:28.968Z,54.10
2019-04-10T18:38:37.641Z,55.10
2019-04-10T18:41:46.911Z,55.60
2019-04-10T18:44:55.544Z,56.50
2019-04-10T18:48:04.203Z,57.00
2019-04-10T18:51:13.892Z,58.00
2019-04-10T18:54:22.917Z,59.30
2019-04-10T18:57:33.734Z,60.00
2019-04-10T19:00:59.021Z,61.10
2019-04-10T19:04:18.282Z,62.90
2019-04-10T19:07:27.098Z,64.20
2019-04-10T19:10:36.627Z,65.50
2019-04-10T19:13:57.138Z,66.90
2019-04-10T19:17:09.066Z,67.90
2019-04-10T19:20:18.039Z,68.90
2019-04-10T19:23:27.170Z,69.90
2019-04-10T19:26:35.969Z,71.00
2019-04-10T19:29:44.592Z,72.20
2019-04-10T19:32:54.006Z,73.30
2019-04-10T19:36:03.634Z,73.90
2019-04-10T19:39:14.073Z,74.30
2019-04-10T19:42:22.834Z,75.10
2019-04-10T19:45:32.578Z,75.60
2019-04-10T19:48:41.534Z,75.90
2019-04-10T19:51:50.845Z,76.50
2019-04-10T19:55:29.564Z,77.00
2019-04-10T19:58:39.292Z,77.70
2019-04-10T20:01:52.765Z,78.60
2019-04-10T20:05:05.250Z,79.80
2019-04-10T20:08:21.713Z,79.50
2019-04-10T20:11:37.797Z,80.10
2019-04-10T20:14:53.234Z,81.00
2019-04-10T20:18:13.388Z,81.30
2019-04-10T20:21:26.443Z,81.50
2019-04-10T20:24:36.520Z,81.90
2019-04-10T20:27:45.867Z,82.50
2019-04-10T20:31:06.987Z,82.80
2019-04-10T20:34:15.737Z,83.40
2019-04-10T20:37:51.230Z,83.80
2019-04-10T20:41:00.497Z,84.00
2019-04-10T20:44:11.202Z,84.30
2019-04-10T20:47:22.615Z,84.50
2019-04-10T20:50:36.361Z,84.80
2019-04-10T20:53:46.313Z,85.40
2019-04-10T20:56:59.184Z,85.80
2019-04-10T21:00:11.625Z,85.70
2019-04-10T21:03:21.572Z,85.90
2019-04-10T21:06:31.764Z,86.40
2019-04-10T21:09:41.727Z,85.40
2019-04-10T21:12:52.467Z,85.30
2019-04-10T21:16:02.900Z,85.30
2019-04-10T21:19:11.113Z,85.50
2019-04-10T21:22:20.421Z,85.70
2019-04-10T21:25:29.056Z,85.50
2019-04-10T21:28:37.725Z,85.70
2019-04-10T21:32:05.208Z,85.90
2019-04-10T21:35:15.951Z,86.00
2019-04-10T21:38:24.528Z,85.80
2019-04-10T21:41:33.163Z,85.50
2019-04-10T21:44:42.916Z,85.80
2019-04-10T21:47:52.315Z,85.90
2019-04-10T21:51:01.168Z,86.30
2019-04-10T21:54:09.949Z,86.10
2019-04-10T21:57:18.618Z,85.60
2019-04-10T22:00:57.653Z,85.70
2019-04-10T22:04:06.584Z,86.20
2019-04-10T22:07:44.801Z,86.20
2019-04-10T22:11:14.890Z,86.60
2019-04-10T22:14:23.854Z,86.80
2019-04-10T22:17:32.566Z,86.50
2019-04-10T22:20:41.632Z,86.20
2019-04-10T22:23:51.126Z,86.70
2019-04-10T22:27:11.309Z,87.00
2019-04-10T22:30:21.077Z,86.50
2019-04-10T22:33:30.032Z,86.90
2019-04-10T22:36:39.506Z,86.90
2019-04-10T22:39:48.260Z,87.10
2019-04-10T22:42:57.502Z,87.40
2019-04-10T22:46:17.207Z,87.10
2019-04-10T22:49:26.616Z,87.10
2019-04-10T22:52:35.347Z,86.90
2019-04-10T22:55:44.572Z,87.00
2019-04-10T22:58:53.324Z,87.00
2019-04-10T23:02:07.199Z,86.90
2019-04-10T23:05:12.613Z,86.50
2019-04-10T23:08:21.309Z,86.60
2019-04-10T23:11:35.140Z,85.80
2019-04-10T23:14:40.415Z,85.50
2019-04-10T23:17:49.224Z,85.20
2019-04-10T23:20:58.583Z,84.90
2019-04-10T23:24:07.854Z,84.60
2019-04-10T23:27:17.671Z,83.90
2019-04-10T23:30:26.748Z,83.40
2019-04-10T23:33:45.723Z,83.20
2019-04-10T23:36:54.335Z,82.80
2019-04-10T23:40:14.673Z,83.30
2019-04-10T23:43:24.972Z,83.20
2019-04-10T23:46:34.674Z,83.40
2019-04-10T23:49:43.767Z,84.00
2019-04-10T23:53:02.871Z,84.70
2019-04-10T23:56:11.663Z,85.20
2019-04-10T23:59:20.601Z,85.70
